sensor_id;sensor_type;location;lat;lon;timestamp;pressure;altitude;pressure_sealevel;temperature;humidity
60817;BME280;51921;51.518;-3.188;2023-08-17T00:01:41;101583.12;;;14.07;100.00
60817;BME280;51921;51.518;-3.188;2023-08-17T00:04:06;101579.25;;;13.80;100.00
60817;BME280;51921;51.518;-3.188;2023-08-17T00:06:31;101578.07;;;14.15;100.00
60817;BME280;51921;51.518;-3.188;2023-08-17T00:08:57;101578.83;;;14.28;100.00
60817;BME280;51921;51.518;-3.188;2023-08-17T00:11:22;101572.45;;;13.72;100.00
60817;BME280;51921;51.518;-3.188;2023-08-17T00:13:48;101568.90;;;13.71;100.00
60817;BME280;51921;51.518;-3.188;2023-08-17T00:16:13;101566.90;;;13.80;100.00
60817;BME280;51921;51.518;-3.188;2023-08-17T00:18:38;101565.76;;;13.70;100.00
60817;BME280;51921;51.518;-3.188;2023-08-17T00:21:04;101566.53;;;13.52;100.00
60817;BME280;51921;51.518;-3.188;2023-08-17T00:23:29;101565.28;;;13.90;100.00
60817;BME280;51921;51.518;-3.188;2023-08-17T00:25:55;101571.99;;;13.48;100.00
60817;BME280;51921;51.518;-3.188;2023-08-17T00:28:20;101574.40;;;13.45;100.00
60817;BME280;51921;51.518;-3.188;2023-08-17T00:30:45;101572.17;;;13.50;100.00
60817;BME280;51921;51.518;-3.188;2023-08-17T00:33:11;101581.97;;;13.15;100.00
60817;BME280;51921;51.518;-3.188;2023-08-17T00:35:36;101577.59;;;13.44;100.00
60817;BME280;51921;51.518;-3.188;2023-08-17T00:38:02;101577.41;;;13.45;100.00
60817;BME280;51921;51.518;-3.188;2023-08-17T00:40:27;101580.66;;;13.37;100.00
60817;BME280;51921;51.518;-3.188;2023-08-17T00:42:52;101574.28;;;13.48;100.00
60817;BME280;51921;51.518;-3.188;2023-08-17T00:45:18;101578.83;;;13.28;100.00
60817;BME280;51921;51.518;-3.188;2023-08-17T00:47:43;101579.53;;;12.96;100.00
60817;BME280;51921;51.518;-3.188;2023-08-17T00:50:09;101575.97;;;13.44;100.00
60817;BME280;51921;51.518;-3.188;2023-08-17T00:52:34;101578.57;;;13.04;100.00
60817;BME280;51921;51.518;-3.188;2023-08-17T00:55:00;101571.59;;;12.74;100.00
60817;BME280;51921;51.518;-3.188;2023-08-17T00:57:25;101573.84;;;13.17;100.00
60817;BME280;51921;51.518;-3.188;2023-08-17T00:59:51;101573.84;;;12.86;100.00
60817;BME280;51921;51.518;-3.188;2023-08-17T01:02:17;101576.75;;;12.50;100.00
60817;BME280;51921;51.518;-3.188;2023-08-17T01:04:41;101583.15;;;12.40;100.00
60817;BME280;51921;51.518;-3.188;2023-08-17T01:07:06;101583.95;;;13.22;100.00
60817;BME280;51921;51.518;-3.188;2023-08-17T01:09:32;101583.35;;;13.07;100.00
60817;BME280;51921;51.518;-3.188;2023-08-17T01:12:05;101588.02;;;12.91;100.00
60817;BME280;51921;51.518;-3.188;2023-08-17T01:14:28;101588.31;;;12.83;100.00
60817;BME280;51921;51.518;-3.188;2023-08-17T01:16:52;101589.10;;;12.68;100.00
60817;BME280;51921;51.518;-3.188;2023-08-17T01:19:20;101592.01;;;12.82;100.00
60817;BME280;51921;51.518;-3.188;2023-08-17T01:21:42;101591.98;;;12.79;100.00
60817;BME280;51921;51.518;-3.188;2023-08-17T01:24:04;101591.75;;;12.71;100.00
60817;BME280;51921;51.518;-3.188;2023-08-17T01:26:29;101590.00;;;12.36;100.00
60817;BME280;51921;51.518;-3.188;2023-08-17T01:28:55;101588.29;;;12.48;100.00
60817;BME280;51921;51.518;-3.188;2023-08-17T01:31:24;101583.20;;;12.41;100.00
60817;BME280;51921;51.518;-3.188;2023-08-17T01:33:49;101579.89;;;12.39;100.00
60817;BME280;51921;51.518;-3.188;2023-08-17T01:36:18;101579.78;;;12.70;100.00
60817;BME280;51921;51.518;-3.188;2023-08-17T01:38:37;101577.08;;;12.63;100.00
60817;BME280;51921;51.518;-3.188;2023-08-17T01:41:02;101570.67;;;12.05;100.00
60817;BME280;51921;51.518;-3.188;2023-08-17T01:43:28;101567.94;;;12.19;100.00
60817;BME280;51921;51.518;-3.188;2023-08-17T01:45:53;101576.92;;;12.03;100.00
60817;BME280;51921;51.518;-3.188;2023-08-17T01:48:18;101580.57;;;12.03;100.00
60817;BME280;51921;51.518;-3.188;2023-08-17T01:50:43;101584.59;;;11.90;100.00
60817;BME280;51921;51.518;-3.188;2023-08-17T01:53:09;101583.74;;;11.90;100.00
60817;BME280;51921;51.518;-3.188;2023-08-17T01:55:34;101580.01;;;11.67;100.00
60817;BME280;51921;51.518;-3.188;2023-08-17T01:58:00;101584.43;;;11.88;100.00
60817;BME280;51921;51.518;-3.188;2023-08-17T02:00:25;101582.86;;;11.66;100.00
60817;BME280;51921;51.518;-3.188;2023-08-17T02:02:50;101581.20;;;11.85;100.00
60817;BME280;51921;51.518;-3.188;2023-08-17T02:05:16;101583.19;;;11.81;100.00
60817;BME280;51921;51.518;-3.188;2023-08-17T02:07:41;101583.98;;;11.52;100.00
60817;BME280;51921;51.518;-3.188;2023-08-17T02:10:07;101586.12;;;11.30;100.00
60817;BME280;51921;51.518;-3.188;2023-08-17T02:12:32;101586.90;;;11.60;100.00
60817;BME280;51921;51.518;-3.188;2023-08-17T02:14:57;101583.15;;;11.80;100.00
60817;BME280;51921;51.518;-3.188;2023-08-17T02:17:23;101588.72;;;11.39;100.00
60817;BME280;51921;51.518;-3.188;2023-08-17T02:19:49;101589.54;;;11.82;100.00
60817;BME280;51921;51.518;-3.188;2023-08-17T02:22:14;101591.61;;;11.97;100.00
60817;BME280;51921;51.518;-3.188;2023-08-17T02:24:40;101590.26;;;11.46;100.00
60817;BME280;51921;51.518;-3.188;2023-08-17T02:27:05;101591.87;;;11.81;100.00
60817;BME280;51921;51.518;-3.188;2023-08-17T02:29:30;101589.82;;;11.57;100.00
60817;BME280;51921;51.518;-3.188;2023-08-17T02:31:56;101590.42;;;12.04;100.00
60817;BME280;51921;51.518;-3.188;2023-08-17T02:34:21;101588.65;;;11.62;100.00
60817;BME280;51921;51.518;-3.188;2023-08-17T02:36:46;101590.14;;;12.26;100.00
60817;BME280;51921;51.518;-3.188;2023-08-17T02:39:11;101594.45;;;11.88;100.00
60817;BME280;51921;51.518;-3.188;2023-08-17T02:41:37;101603.15;;;11.34;100.00
60817;BME280;51921;51.518;-3.188;2023-08-17T02:44:03;101594.23;;;11.90;100.00
60817;BME280;51921;51.518;-3.188;2023-08-17T02:46:28;101597.27;;;11.57;100.00
60817;BME280;51921;51.518;-3.188;2023-08-17T02:48:53;101603.11;;;11.15;100.00
60817;BME280;51921;51.518;-3.188;2023-08-17T02:51:19;101605.60;;;11.18;100.00
60817;BME280;51921;51.518;-3.188;2023-08-17T02:53:44;101611.59;;;11.35;100.00
60817;BME280;51921;51.518;-3.188;2023-08-17T02:56:10;101612.24;;;11.18;100.00
60817;BME280;51921;51.518;-3.188;2023-08-17T02:58:36;101612.21;;;11.57;100.00
60817;BME280;51921;51.518;-3.188;2023-08-17T03:01:02;101608.53;;;11.34;100.00
60817;BME280;51921;51.518;-3.188;2023-08-17T03:03:26;101607.70;;;10.90;100.00
60817;BME280;51921;51.518;-3.188;2023-08-17T03:05:51;101605.85;;;11.10;100.00
60817;BME280;51921;51.518;-3.188;2023-08-17T03:08:17;101611.08;;;10.78;100.00
60817;BME280;51921;51.518;-3.188;2023-08-17T03:10:42;101604.50;;;11.33;100.00
60817;BME280;51921;51.518;-3.188;2023-08-17T03:13:07;101608.79;;;10.89;100.00
60817;BME280;51921;51.518;-3.188;2023-08-17T03:15:33;101602.08;;;11.20;100.00
60817;BME280;51921;51.518;-3.188;2023-08-17T03:17:58;101607.24;;;10.88;100.00
60817;BME280;51921;51.518;-3.188;2023-08-17T03:20:24;101603.51;;;11.07;100.00
60817;BME280;51921;51.518;-3.188;2023-08-17T03:22:49;101596.20;;;10.87;100.00
60817;BME280;51921;51.518;-3.188;2023-08-17T03:25:15;101596.72;;;11.09;100.00
60817;BME280;51921;51.518;-3.188;2023-08-17T03:27:40;101599.02;;;10.78;100.00
60817;BME280;51921;51.518;-3.188;2023-08-17T03:30:06;101597.97;;;11.05;100.00
60817;BME280;51921;51.518;-3.188;2023-08-17T03:32:31;101594.10;;;11.34;100.00
60817;BME280;51921;51.518;-3.188;2023-08-17T03:34:56;101593.83;;;11.60;100.00
60817;BME280;51921;51.518;-3.188;2023-08-17T03:37:22;101598.07;;;11.34;100.00
60817;BME280;51921;51.518;-3.188;2023-08-17T03:39:47;101603.21;;;11.55;100.00
60817;BME280;51921;51.518;-3.188;2023-08-17T03:42:12;101606.13;;;11.34;100.00
60817;BME280;51921;51.518;-3.188;2023-08-17T03:44:38;101610.04;;;11.84;100.00
60817;BME280;51921;51.518;-3.188;2023-08-17T03:47:03;101611.22;;;11.49;100.00
60817;BME280;51921;51.518;-3.188;2023-08-17T03:49:29;101615.03;;;11.77;100.00
60817;BME280;51921;51.518;-3.188;2023-08-17T03:51:54;101615.89;;;12.26;100.00
60817;BME280;51921;51.518;-3.188;2023-08-17T03:54:19;101618.64;;;11.93;100.00
60817;BME280;51921;51.518;-3.188;2023-08-17T03:56:45;101620.75;;;12.16;100.00
60817;BME280;51921;51.518;-3.188;2023-08-17T03:59:10;101618.05;;;11.45;100.00
60817;BME280;51921;51.518;-3.188;2023-08-17T04:01:36;101617.96;;;11.95;100.00
60817;BME280;51921;51.518;-3.188;2023-08-17T04:04:01;101613.55;;;11.60;100.00
60817;BME280;51921;51.518;-3.188;2023-08-17T04:06:27;101616.77;;;11.35;100.00
60817;BME280;51921;51.518;-3.188;2023-08-17T04:08:52;101615.96;;;11.50;100.00
60817;BME280;51921;51.518;-3.188;2023-08-17T04:11:18;101617.10;;;12.18;100.00
60817;BME280;51921;51.518;-3.188;2023-08-17T04:13:43;101619.09;;;11.83;100.00
60817;BME280;51921;51.518;-3.188;2023-08-17T04:16:08;101624.19;;;12.03;100.00
60817;BME280;51921;51.518;-3.188;2023-08-17T04:18:34;101623.48;;;12.10;100.00
60817;BME280;51921;51.518;-3.188;2023-08-17T04:20:59;101627.85;;;11.48;100.00
60817;BME280;51921;51.518;-3.188;2023-08-17T04:23:24;101625.71;;;11.10;100.00
60817;BME280;51921;51.518;-3.188;2023-08-17T04:25:50;101621.19;;;10.97;100.00
60817;BME280;51921;51.518;-3.188;2023-08-17T04:28:15;101621.45;;;10.66;100.00
60817;BME280;51921;51.518;-3.188;2023-08-17T04:30:41;101617.53;;;10.37;100.00
60817;BME280;51921;51.518;-3.188;2023-08-17T04:33:06;101622.56;;;10.74;100.00
60817;BME280;51921;51.518;-3.188;2023-08-17T04:35:32;101617.46;;;10.71;100.00
60817;BME280;51921;51.518;-3.188;2023-08-17T04:37:57;101619.26;;;10.25;100.00
60817;BME280;51921;51.518;-3.188;2023-08-17T04:40:23;101616.04;;;10.71;100.00
60817;BME280;51921;51.518;-3.188;2023-08-17T04:42:49;101617.25;;;10.43;100.00
60817;BME280;51921;51.518;-3.188;2023-08-17T04:45:14;101615.16;;;11.05;100.00
60817;BME280;51921;51.518;-3.188;2023-08-17T04:47:39;101614.48;;;10.76;100.00
60817;BME280;51921;51.518;-3.188;2023-08-17T04:50:06;101608.41;;;10.47;100.00
60817;BME280;51921;51.518;-3.188;2023-08-17T04:52:30;101607.97;;;10.21;100.00
60817;BME280;51921;51.518;-3.188;2023-08-17T04:54:55;101607.03;;;10.85;100.00
60817;BME280;51921;51.518;-3.188;2023-08-17T04:57:21;101605.38;;;10.22;100.00
60817;BME280;51921;51.518;-3.188;2023-08-17T04:59:46;101608.93;;;10.54;100.00
60817;BME280;51921;51.518;-3.188;2023-08-17T05:02:12;101602.97;;;10.62;100.00
60817;BME280;51921;51.518;-3.188;2023-08-17T05:04:37;101602.11;;;10.88;100.00
60817;BME280;51921;51.518;-3.188;2023-08-17T05:07:03;101605.69;;;10.12;100.00
60817;BME280;51921;51.518;-3.188;2023-08-17T05:09:28;101605.20;;;10.50;100.00
60817;BME280;51921;51.518;-3.188;2023-08-17T05:11:53;101604.82;;;10.71;100.00
60817;BME280;51921;51.518;-3.188;2023-08-17T05:14:19;101601.93;;;10.49;100.00
60817;BME280;51921;51.518;-3.188;2023-08-17T05:16:44;101598.00;;;10.28;100.00
60817;BME280;51921;51.518;-3.188;2023-08-17T05:19:10;101593.52;;;9.81;100.00
60817;BME280;51921;51.518;-3.188;2023-08-17T05:21:36;101589.22;;;9.96;100.00
60817;BME280;51921;51.518;-3.188;2023-08-17T05:24:01;101583.50;;;9.98;100.00
60817;BME280;51921;51.518;-3.188;2023-08-17T05:26:27;101581.20;;;10.03;100.00
60817;BME280;51921;51.518;-3.188;2023-08-17T05:28:52;101580.51;;;9.91;100.00
60817;BME280;51921;51.518;-3.188;2023-08-17T05:31:18;101584.04;;;10.18;100.00
60817;BME280;51921;51.518;-3.188;2023-08-17T05:33:43;101589.10;;;10.63;100.00
60817;BME280;51921;51.518;-3.188;2023-08-17T05:36:09;101590.54;;;10.39;100.00
60817;BME280;51921;51.518;-3.188;2023-08-17T05:38:34;101591.03;;;10.44;100.00
60817;BME280;51921;51.518;-3.188;2023-08-17T05:41:00;101594.41;;;10.67;100.00
60817;BME280;51921;51.518;-3.188;2023-08-17T05:43:26;101592.58;;;10.76;100.00
60817;BME280;51921;51.518;-3.188;2023-08-17T05:45:51;101591.65;;;10.42;100.00
60817;BME280;51921;51.518;-3.188;2023-08-17T05:48:18;101591.04;;;10.02;100.00
60817;BME280;51921;51.518;-3.188;2023-08-17T05:50:41;101595.31;;;9.97;100.00
60817;BME280;51921;51.518;-3.188;2023-08-17T05:53:07;101595.79;;;10.09;100.00
60817;BME280;51921;51.518;-3.188;2023-08-17T05:55:32;101590.80;;;10.31;100.00
60817;BME280;51921;51.518;-3.188;2023-08-17T05:57:57;101580.51;;;10.01;100.00
60817;BME280;51921;51.518;-3.188;2023-08-17T06:00:23;101584.17;;;9.98;100.00
60817;BME280;51921;51.518;-3.188;2023-08-17T06:02:49;101582.59;;;10.30;100.00
60817;BME280;51921;51.518;-3.188;2023-08-17T06:05:14;101585.64;;;10.26;100.00
60817;BME280;51921;51.518;-3.188;2023-08-17T06:07:39;101583.73;;;9.84;100.00
60817;BME280;51921;51.518;-3.188;2023-08-17T06:10:06;101580.09;;;10.23;100.00
60817;BME280;51921;51.518;-3.188;2023-08-17T06:12:30;101582.44;;;10.08;100.00
60817;BME280;51921;51.518;-3.188;2023-08-17T06:14:56;101580.92;;;9.98;100.00
60817;BME280;51921;51.518;-3.188;2023-08-17T06:17:21;101576.39;;;10.19;100.00
60817;BME280;51921;51.518;-3.188;2023-08-17T06:19:46;101574.98;;;10.37;100.00
60817;BME280;51921;51.518;-3.188;2023-08-17T06:22:12;101581.30;;;10.37;100.00
60817;BME280;51921;51.518;-3.188;2023-08-17T06:24:37;101579.37;;;10.62;100.00
60817;BME280;51921;51.518;-3.188;2023-08-17T06:27:03;101577.32;;;10.55;100.00
60817;BME280;51921;51.518;-3.188;2023-08-17T06:29:28;101582.17;;;10.59;100.00
60817;BME280;51921;51.518;-3.188;2023-08-17T06:31:53;101580.62;;;10.26;100.00
60817;BME280;51921;51.518;-3.188;2023-08-17T06:34:19;101586.90;;;10.20;100.00
60817;BME280;51921;51.518;-3.188;2023-08-17T06:39:10;101593.51;;;10.10;100.00
60817;BME280;51921;51.518;-3.188;2023-08-17T06:41:35;101591.02;;;10.31;100.00
60817;BME280;51921;51.518;-3.188;2023-08-17T06:44:01;101591.39;;;11.09;100.00
60817;BME280;51921;51.518;-3.188;2023-08-17T06:46:26;101592.68;;;10.80;100.00
60817;BME280;51921;51.518;-3.188;2023-08-17T06:48:51;101592.96;;;10.10;100.00
60817;BME280;51921;51.518;-3.188;2023-08-17T06:51:16;101593.59;;;10.94;100.00
60817;BME280;51921;51.518;-3.188;2023-08-17T06:53:42;101603.50;;;10.63;100.00
60817;BME280;51921;51.518;-3.188;2023-08-17T06:56:09;101598.47;;;10.86;100.00
60817;BME280;51921;51.518;-3.188;2023-08-17T06:58:33;101599.37;;;11.08;100.00
60817;BME280;51921;51.518;-3.188;2023-08-17T07:00:58;101601.40;;;10.75;100.00
60817;BME280;51921;51.518;-3.188;2023-08-17T07:03:24;101598.01;;;10.65;100.00
60817;BME280;51921;51.518;-3.188;2023-08-17T07:05:49;101606.86;;;10.47;100.00
60817;BME280;51921;51.518;-3.188;2023-08-17T07:08:15;101601.52;;;10.61;100.00
60817;BME280;51921;51.518;-3.188;2023-08-17T07:10:40;101601.05;;;10.87;100.00
60817;BME280;51921;51.518;-3.188;2023-08-17T07:13:05;101605.31;;;10.45;100.00
60817;BME280;51921;51.518;-3.188;2023-08-17T07:15:30;101599.05;;;10.39;100.00
60817;BME280;51921;51.518;-3.188;2023-08-17T07:17:56;101594.34;;;10.96;100.00
60817;BME280;51921;51.518;-3.188;2023-08-17T07:20:21;101591.98;;;10.51;100.00
60817;BME280;51921;51.518;-3.188;2023-08-17T07:22:46;101591.64;;;11.00;100.00
60817;BME280;51921;51.518;-3.188;2023-08-17T07:25:12;101593.97;;;11.11;100.00
60817;BME280;51921;51.518;-3.188;2023-08-17T07:27:38;101584.53;;;11.01;100.00
60817;BME280;51921;51.518;-3.188;2023-08-17T07:30:04;101580.01;;;11.10;100.00
60817;BME280;51921;51.518;-3.188;2023-08-17T07:32:29;101578.75;;;10.93;100.00
60817;BME280;51921;51.518;-3.188;2023-08-17T07:34:54;101569.13;;;11.33;100.00
60817;BME280;51921;51.518;-3.188;2023-08-17T07:37:19;101575.10;;;11.36;100.00
60817;BME280;51921;51.518;-3.188;2023-08-17T07:39:44;101569.10;;;11.77;100.00
60817;BME280;51921;51.518;-3.188;2023-08-17T07:42:10;101564.32;;;12.22;100.00
60817;BME280;51921;51.518;-3.188;2023-08-17T07:44:35;101568.35;;;11.66;100.00
60817;BME280;51921;51.518;-3.188;2023-08-17T07:47:00;101572.33;;;11.64;100.00
60817;BME280;51921;51.518;-3.188;2023-08-17T07:49:27;101561.65;;;11.90;100.00
60817;BME280;51921;51.518;-3.188;2023-08-17T07:51:51;101567.16;;;11.78;100.00
60817;BME280;51921;51.518;-3.188;2023-08-17T07:54:16;101571.87;;;11.88;100.00
60817;BME280;51921;51.518;-3.188;2023-08-17T07:56:42;101559.47;;;12.10;100.00
60817;BME280;51921;51.518;-3.188;2023-08-17T07:59:08;101560.31;;;11.86;100.00
60817;BME280;51921;51.518;-3.188;2023-08-17T08:01:33;101567.74;;;11.67;100.00
60817;BME280;51921;51.518;-3.188;2023-08-17T08:03:59;101576.29;;;10.91;100.00
60817;BME280;51921;51.518;-3.188;2023-08-17T08:06:24;101577.24;;;11.49;100.00
60817;BME280;51921;51.518;-3.188;2023-08-17T08:08:50;101580.60;;;11.84;100.00
60817;BME280;51921;51.518;-3.188;2023-08-17T08:11:15;101579.02;;;11.78;100.00
60817;BME280;51921;51.518;-3.188;2023-08-17T08:13:41;101576.70;;;12.45;100.00
60817;BME280;51921;51.518;-3.188;2023-08-17T08:16:06;101572.44;;;12.70;100.00
60817;BME280;51921;51.518;-3.188;2023-08-17T08:18:31;101571.96;;;12.57;100.00
60817;BME280;51921;51.518;-3.188;2023-08-17T08:20:56;101578.00;;;11.96;100.00
60817;BME280;51921;51.518;-3.188;2023-08-17T08:23:22;101574.18;;;12.21;100.00
60817;BME280;51921;51.518;-3.188;2023-08-17T08:25:47;101572.76;;;11.86;100.00
60817;BME280;51921;51.518;-3.188;2023-08-17T08:28:12;101574.60;;;11.71;100.00
60817;BME280;51921;51.518;-3.188;2023-08-17T08:30:37;101570.60;;;13.10;100.00
60817;BME280;51921;51.518;-3.188;2023-08-17T08:33:03;101563.28;;;13.11;100.00
60817;BME280;51921;51.518;-3.188;2023-08-17T08:35:28;101556.91;;;13.33;100.00
60817;BME280;51921;51.518;-3.188;2023-08-17T08:37:53;101556.53;;;13.77;100.00
60817;BME280;51921;51.518;-3.188;2023-08-17T08:40:19;101553.84;;;14.15;100.00
60817;BME280;51921;51.518;-3.188;2023-08-17T08:42:44;101556.83;;;14.33;100.00
60817;BME280;51921;51.518;-3.188;2023-08-17T08:45:10;101564.43;;;13.37;100.00
60817;BME280;51921;51.518;-3.188;2023-08-17T08:47:36;101560.78;;;13.21;100.00
60817;BME280;51921;51.518;-3.188;2023-08-17T08:50:01;101561.15;;;12.92;100.00
60817;BME280;51921;51.518;-3.188;2023-08-17T08:52:31;101565.02;;;12.97;100.00
60817;BME280;51921;51.518;-3.188;2023-08-17T08:54:54;101559.77;;;12.63;100.00
60817;BME280;51921;51.518;-3.188;2023-08-17T08:57:17;101563.23;;;12.10;100.00
60817;BME280;51921;51.518;-3.188;2023-08-17T08:59:43;101556.57;;;12.25;100.00
60817;BME280;51921;51.518;-3.188;2023-08-17T09:02:07;101555.45;;;12.79;100.00
60817;BME280;51921;51.518;-3.188;2023-08-17T09:04:32;101547.80;;;13.40;100.00
60817;BME280;51921;51.518;-3.188;2023-08-17T09:06:58;101551.36;;;13.29;100.00
60817;BME280;51921;51.518;-3.188;2023-08-17T09:09:23;101551.90;;;13.43;100.00
60817;BME280;51921;51.518;-3.188;2023-08-17T09:11:48;101548.81;;;13.34;100.00
60817;BME280;51921;51.518;-3.188;2023-08-17T09:14:14;101545.10;;;13.04;100.00
60817;BME280;51921;51.518;-3.188;2023-08-17T09:16:40;101544.37;;;13.62;100.00
60817;BME280;51921;51.518;-3.188;2023-08-17T09:19:06;101551.01;;;13.10;100.00
60817;BME280;51921;51.518;-3.188;2023-08-17T09:21:32;101542.39;;;14.35;100.00
60817;BME280;51921;51.518;-3.188;2023-08-17T09:23:56;101539.62;;;14.15;100.00
60817;BME280;51921;51.518;-3.188;2023-08-17T09:26:22;101540.08;;;13.92;100.00
60817;BME280;51921;51.518;-3.188;2023-08-17T09:28:46;101546.79;;;13.20;100.00
60817;BME280;51921;51.518;-3.188;2023-08-17T09:31:11;101544.10;;;13.26;100.00
60817;BME280;51921;51.518;-3.188;2023-08-17T09:33:37;101536.82;;;13.03;100.00
60817;BME280;51921;51.518;-3.188;2023-08-17T09:36:03;101535.17;;;13.15;100.00
60817;BME280;51921;51.518;-3.188;2023-08-17T09:38:28;101527.94;;;13.52;100.00
60817;BME280;51921;51.518;-3.188;2023-08-17T09:40:54;101532.31;;;13.23;100.00
60817;BME280;51921;51.518;-3.188;2023-08-17T09:43:20;101524.42;;;13.97;100.00
60817;BME280;51921;51.518;-3.188;2023-08-17T09:45:45;101520.02;;;13.88;100.00
60817;BME280;51921;51.518;-3.188;2023-08-17T09:48:10;101521.12;;;14.84;100.00
60817;BME280;51921;51.518;-3.188;2023-08-17T09:50:36;101524.50;;;14.79;100.00
60817;BME280;51921;51.518;-3.188;2023-08-17T09:53:02;101530.40;;;14.40;100.00
60817;BME280;51921;51.518;-3.188;2023-08-17T09:55:26;101528.77;;;14.08;100.00
60817;BME280;51921;51.518;-3.188;2023-08-17T09:57:52;101526.43;;;14.38;100.00
60817;BME280;51921;51.518;-3.188;2023-08-17T10:00:19;101523.90;;;14.49;100.00
60817;BME280;51921;51.518;-3.188;2023-08-17T10:02:44;101517.83;;;14.59;100.00
60817;BME280;51921;51.518;-3.188;2023-08-17T10:05:11;101515.62;;;13.91;100.00
60817;BME280;51921;51.518;-3.188;2023-08-17T10:07:35;101519.33;;;13.99;100.00
60817;BME280;51921;51.518;-3.188;2023-08-17T10:10:03;101521.43;;;13.68;100.00
60817;BME280;51921;51.518;-3.188;2023-08-17T10:12:28;101514.99;;;14.01;100.00
60817;BME280;51921;51.518;-3.188;2023-08-17T10:14:55;101514.06;;;14.05;100.00
60817;BME280;51921;51.518;-3.188;2023-08-17T10:17:21;101514.43;;;14.29;100.00
60817;BME280;51921;51.518;-3.188;2023-08-17T10:19:46;101507.04;;;14.58;100.00
60817;BME280;51921;51.518;-3.188;2023-08-17T10:22:10;101511.78;;;15.15;100.00
60817;BME280;51921;51.518;-3.188;2023-08-17T10:24:32;101506.05;;;14.76;100.00
60817;BME280;51921;51.518;-3.188;2023-08-17T10:26:57;101508.20;;;14.51;100.00
60817;BME280;51921;51.518;-3.188;2023-08-17T10:29:23;101506.12;;;14.75;100.00
60817;BME280;51921;51.518;-3.188;2023-08-17T10:31:49;101503.03;;;14.96;100.00
60817;BME280;51921;51.518;-3.188;2023-08-17T10:34:13;101508.77;;;14.80;100.00
60817;BME280;51921;51.518;-3.188;2023-08-17T10:36:38;101501.46;;;14.75;100.00
60817;BME280;51921;51.518;-3.188;2023-08-17T10:39:19;101499.83;;;14.80;100.00
60817;BME280;51921;51.518;-3.188;2023-08-17T10:41:29;101501.51;;;15.06;100.00
60817;BME280;51921;51.518;-3.188;2023-08-17T10:43:56;101502.24;;;15.70;100.00
60817;BME280;51921;51.518;-3.188;2023-08-17T10:46:20;101499.75;;;15.22;100.00
60817;BME280;51921;51.518;-3.188;2023-08-17T10:48:46;101497.36;;;15.69;100.00
60817;BME280;51921;51.518;-3.188;2023-08-17T10:51:11;101487.02;;;15.65;100.00
60817;BME280;51921;51.518;-3.188;2023-08-17T10:53:37;101488.47;;;15.00;100.00
60817;BME280;51921;51.518;-3.188;2023-08-17T10:56:01;101492.87;;;15.65;100.00
60817;BME280;51921;51.518;-3.188;2023-08-17T10:58:31;101478.35;;;15.86;100.00
60817;BME280;51921;51.518;-3.188;2023-08-17T11:00:54;101479.94;;;15.75;100.00
60817;BME280;51921;51.518;-3.188;2023-08-17T11:03:18;101474.51;;;15.83;100.00
60817;BME280;51921;51.518;-3.188;2023-08-17T11:05:43;101479.86;;;15.27;100.00
60817;BME280;51921;51.518;-3.188;2023-08-17T11:08:08;101476.60;;;16.01;100.00
60817;BME280;51921;51.518;-3.188;2023-08-17T11:10:33;101473.20;;;16.00;100.00
60817;BME280;51921;51.518;-3.188;2023-08-17T11:12:59;101472.37;;;15.86;100.00
60817;BME280;51921;51.518;-3.188;2023-08-17T11:15:25;101475.40;;;17.23;100.00
60817;BME280;51921;51.518;-3.188;2023-08-17T11:17:49;101478.42;;;16.58;100.00
60817;BME280;51921;51.518;-3.188;2023-08-17T11:20:15;101485.11;;;16.63;100.00
60817;BME280;51921;51.518;-3.188;2023-08-17T11:22:40;101485.77;;;15.88;100.00
60817;BME280;51921;51.518;-3.188;2023-08-17T11:25:06;101481.89;;;16.32;100.00
60817;BME280;51921;51.518;-3.188;2023-08-17T11:27:31;101477.71;;;16.23;100.00
60817;BME280;51921;51.518;-3.188;2023-08-17T11:29:56;101479.53;;;15.75;100.00
60817;BME280;51921;51.518;-3.188;2023-08-17T11:32:22;101475.50;;;16.04;100.00
60817;BME280;51921;51.518;-3.188;2023-08-17T11:34:47;101469.93;;;16.46;100.00
60817;BME280;51921;51.518;-3.188;2023-08-17T11:37:12;101464.52;;;16.51;100.00
60817;BME280;51921;51.518;-3.188;2023-08-17T11:39:37;101467.51;;;16.68;100.00
60817;BME280;51921;51.518;-3.188;2023-08-17T11:42:03;101471.20;;;16.37;100.00
60817;BME280;51921;51.518;-3.188;2023-08-17T11:44:28;101464.77;;;16.69;100.00
60817;BME280;51921;51.518;-3.188;2023-08-17T11:46:53;101454.46;;;16.83;100.00
60817;BME280;51921;51.518;-3.188;2023-08-17T11:49:19;101453.42;;;16.67;100.00
60817;BME280;51921;51.518;-3.188;2023-08-17T11:51:45;101447.06;;;16.45;100.00
60817;BME280;51921;51.518;-3.188;2023-08-17T11:54:10;101443.14;;;16.90;100.00
60817;BME280;51921;51.518;-3.188;2023-08-17T11:56:37;101443.85;;;16.69;100.00
60817;BME280;51921;51.518;-3.188;2023-08-17T11:59:08;101435.60;;;17.21;100.00
60817;BME280;51921;51.518;-3.188;2023-08-17T12:01:26;101441.64;;;17.21;100.00
60817;BME280;51921;51.518;-3.188;2023-08-17T12:03:51;101446.18;;;16.43;100.00
60817;BME280;51921;51.518;-3.188;2023-08-17T12:06:17;101441.89;;;16.53;100.00
60817;BME280;51921;51.518;-3.188;2023-08-17T12:08:42;101438.96;;;17.17;100.00
60817;BME280;51921;51.518;-3.188;2023-08-17T12:11:07;101435.21;;;17.15;100.00
60817;BME280;51921;51.518;-3.188;2023-08-17T12:13:33;101438.07;;;17.59;100.00
60817;BME280;51921;51.518;-3.188;2023-08-17T12:15:58;101438.89;;;16.30;100.00
60817;BME280;51921;51.518;-3.188;2023-08-17T12:18:23;101434.46;;;16.81;100.00
60817;BME280;51921;51.518;-3.188;2023-08-17T12:20:52;101428.06;;;16.87;100.00
60817;BME280;51921;51.518;-3.188;2023-08-17T12:23:13;101426.72;;;16.80;100.00